createdAt,value
2023-05-17T00:01:59.325Z,3.87
2023-05-17T00:04:26.828Z,3.97
2023-05-17T00:06:54.640Z,4.10
2023-05-17T00:09:22.075Z,4.20
2023-05-17T00:11:50.069Z,4.07
2023-05-17T00:14:17.866Z,4.43
2023-05-17T00:16:45.466Z,4.10
2023-05-17T00:19:13.013Z,4.50
2023-05-17T00:21:40.556Z,4.23
2023-05-17T00:24:09.054Z,4.17
2023-05-17T00:26:36.507Z,4.43
2023-05-17T00:29:03.973Z,4.70
2023-05-17T00:31:31.399Z,4.40
2023-05-17T00:33:59.234Z,4.33
2023-05-17T00:36:26.675Z,4.43
2023-05-17T00:38:54.136Z,4.17
2023-05-17T00:41:21.584Z,3.90
2023-05-17T00:43:49.017Z,4.43
2023-05-17T00:46:16.475Z,4.43
2023-05-17T00:48:44.250Z,5.17
2023-05-17T00:51:12.292Z,4.23
2023-05-17T00:53:40.286Z,4.00
2023-05-17T00:56:08.185Z,4.60
2023-05-17T00:58:36.098Z,4.47
2023-05-17T01:01:04.001Z,4.47
2023-05-17T01:03:31.534Z,3.77
2023-05-17T01:05:59.081Z,4.20
2023-05-17T01:08:26.535Z,4.80
2023-05-17T01:10:55.498Z,4.37
2023-05-17T01:13:24.492Z,4.10
2023-05-17T01:15:56.425Z,4.80
2023-05-17T01:18:40.754Z,4.67
2023-05-17T01:21:22.051Z,4.37
2023-05-17T01:24:06.073Z,4.50
2023-05-17T01:26:41.003Z,5.70
2023-05-17T01:29:10.040Z,4.53
2023-05-17T01:31:37.802Z,4.00
2023-05-17T01:34:08.374Z,4.23
2023-05-17T01:36:36.142Z,4.23
2023-05-17T01:39:03.652Z,4.37
2023-05-17T01:41:35.562Z,4.23
2023-05-17T01:44:22.344Z,5.03
2023-05-17T01:46:51.653Z,4.20
2023-05-17T01:49:20.631Z,4.40
2023-05-17T01:51:55.717Z,4.60
2023-05-17T01:54:24.745Z,4.57
2023-05-17T01:56:53.680Z,4.57
2023-05-17T01:59:24.650Z,4.60
2023-05-17T02:01:56.571Z,3.80
2023-05-17T02:04:24.565Z,5.47
2023-05-17T02:06:52.123Z,5.37
2023-05-17T02:09:19.577Z,4.30
2023-05-17T02:11:47.033Z,5.70
2023-05-17T02:14:14.473Z,4.17
2023-05-17T02:16:41.913Z,4.10
2023-05-17T02:19:09.460Z,4.80
2023-05-17T02:21:37.025Z,4.83
2023-05-17T02:24:04.485Z,4.10
2023-05-17T02:26:32.000Z,4.60
2023-05-17T02:28:59.848Z,5.10
2023-05-17T02:31:27.284Z,4.37
2023-05-17T02:33:54.963Z,3.93
2023-05-17T02:36:22.548Z,4.47
2023-05-17T02:38:50.363Z,4.80
2023-05-17T02:41:17.812Z,4.37
2023-05-17T02:43:45.624Z,5.00
2023-05-17T02:46:13.078Z,4.63
2023-05-17T02:48:40.512Z,4.50
2023-05-17T02:51:07.942Z,4.60
2023-05-17T02:53:35.748Z,4.10
2023-05-17T02:56:03.942Z,4.40
2023-05-17T02:58:31.380Z,4.10
2023-05-17T03:00:58.778Z,4.63
2023-05-17T03:03:26.288Z,4.67
2023-05-17T03:05:54.377Z,4.40
2023-05-17T03:08:21.785Z,4.07
2023-05-17T03:10:49.228Z,4.13
2023-05-17T03:13:16.665Z,4.50
2023-05-17T03:15:44.573Z,4.23
2023-05-17T03:18:12.079Z,4.23
2023-05-17T03:20:39.641Z,4.73
2023-05-17T03:23:07.454Z,5.27
2023-05-17T03:25:34.902Z,4.90
2023-05-17T03:28:02.345Z,4.70
2023-05-17T03:30:29.837Z,5.13
2023-05-17T03:32:57.302Z,4.67
2023-05-17T03:35:24.765Z,4.60
2023-05-17T03:37:52.305Z,4.60
2023-05-17T03:40:20.264Z,4.80
2023-05-17T03:42:47.706Z,5.07
2023-05-17T03:45:16.379Z,4.30
2023-05-17T03:47:43.942Z,5.20
2023-05-17T03:50:11.439Z,5.10
2023-05-17T03:52:40.527Z,4.47
2023-05-17T03:55:08.236Z,4.10
2023-05-17T03:57:35.673Z,4.10
2023-05-17T04:00:04.774Z,4.07
2023-05-17T04:02:32.213Z,3.50
2023-05-17T04:04:59.817Z,4.80
2023-05-17T04:07:27.290Z,4.87
2023-05-17T04:09:57.753Z,4.43
2023-05-17T04:12:25.342Z,3.80
2023-05-17T04:14:53.171Z,4.37
2023-05-17T04:17:21.113Z,3.90
2023-05-17T04:19:48.562Z,4.10
2023-05-17T04:22:16.002Z,3.80
2023-05-17T04:24:43.429Z,3.77
2023-05-17T04:27:11.142Z,3.60
2023-05-17T04:29:38.647Z,4.50
2023-05-17T04:32:06.588Z,4.27
2023-05-17T04:34:34.468Z,4.00
2023-05-17T04:37:01.911Z,4.03
2023-05-17T04:39:30.847Z,3.87
2023-05-17T04:41:58.386Z,4.20
2023-05-17T04:44:26.465Z,4.17
2023-05-17T04:46:54.326Z,4.20
2023-05-17T04:49:22.804Z,3.90
2023-05-17T04:51:50.917Z,3.60
2023-05-17T04:54:18.815Z,4.10
2023-05-17T04:56:46.214Z,3.60
2023-05-17T04:59:13.636Z,4.20
2023-05-17T05:01:41.104Z,4.17
2023-05-17T05:04:08.782Z,4.43
2023-05-17T05:06:36.256Z,4.67
2023-05-17T05:09:04.047Z,4.67
2023-05-17T05:11:32.071Z,4.57
2023-05-17T05:13:59.501Z,5.13
2023-05-17T05:16:26.933Z,5.10
2023-05-17T05:18:54.542Z,5.37
2023-05-17T05:21:22.499Z,4.47
2023-05-17T05:23:50.354Z,5.10
2023-05-17T05:26:17.777Z,5.07
2023-05-17T05:28:45.263Z,4.67
2023-05-17T05:31:12.718Z,4.90
2023-05-17T05:33:40.292Z,4.63
2023-05-17T05:36:08.191Z,5.37
2023-05-17T05:38:36.737Z,5.33
2023-05-17T05:41:04.240Z,5.33
2023-05-17T05:43:31.575Z,5.20
2023-05-17T05:45:59.039Z,4.50
2023-05-17T05:48:26.537Z,4.50
2023-05-17T05:50:54.040Z,5.23
2023-05-17T05:53:22.431Z,5.07
2023-05-17T05:55:49.968Z,4.10
2023-05-17T05:58:17.407Z,4.70
2023-05-17T06:00:45.375Z,4.70
2023-05-17T06:03:12.745Z,4.93
2023-05-17T06:05:40.834Z,4.83
2023-05-17T06:08:14.273Z,5.10
2023-05-17T06:10:41.710Z,4.83
2023-05-17T06:13:09.262Z,4.87
2023-05-17T06:15:36.713Z,4.70
2023-05-17T06:18:04.307Z,4.90
2023-05-17T06:20:31.963Z,4.50
2023-05-17T06:22:59.600Z,4.17
2023-05-17T06:25:27.076Z,4.70
2023-05-17T06:27:54.482Z,4.30
2023-05-17T06:30:22.191Z,5.07
2023-05-17T06:32:49.656Z,4.23
2023-05-17T06:35:17.222Z,4.67
2023-05-17T06:37:44.683Z,3.90
2023-05-17T06:40:16.483Z,4.97
2023-05-17T06:42:41.832Z,4.40
2023-05-17T06:45:09.455Z,4.60
2023-05-17T06:47:36.987Z,4.33
2023-05-17T06:50:04.604Z,4.50
2023-05-17T06:52:32.074Z,3.73
2023-05-17T06:54:59.851Z,4.40
2023-05-17T06:57:27.294Z,3.93
2023-05-17T06:59:54.752Z,5.00
2023-05-17T07:02:22.211Z,4.80
2023-05-17T07:04:49.696Z,4.50
2023-05-17T07:07:17.790Z,4.33
2023-05-17T07:09:45.254Z,3.97
2023-05-17T07:12:13.039Z,4.30
2023-05-17T07:14:40.473Z,4.00
2023-05-17T07:17:07.897Z,4.40
2023-05-17T07:19:35.801Z,3.73
2023-05-17T07:22:09.834Z,3.80
2023-05-17T07:24:37.290Z,6.07
2023-05-17T07:27:04.793Z,3.87
2023-05-17T07:29:35.563Z,3.50
2023-05-17T07:32:03.344Z,3.73
2023-05-17T07:34:33.532Z,4.13
2023-05-17T07:37:01.029Z,3.87
2023-05-17T07:39:28.405Z,3.70
2023-05-17T07:41:57.954Z,3.13
2023-05-17T07:44:25.393Z,3.50
2023-05-17T07:46:53.235Z,3.30
2023-05-17T07:49:20.802Z,3.40
2023-05-17T07:51:52.014Z,4.07
2023-05-17T07:54:29.991Z,3.80
2023-05-17T07:56:57.816Z,4.03
2023-05-17T07:59:25.750Z,4.13
2023-05-17T08:01:53.258Z,4.20
2023-05-17T08:04:20.787Z,3.97
2023-05-17T08:06:49.876Z,4.30
2023-05-17T08:09:17.492Z,4.00
2023-05-17T08:11:47.981Z,4.50
2023-05-17T08:14:16.242Z,4.17
2023-05-17T08:16:43.969Z,4.30
2023-05-17T08:19:13.100Z,4.03
2023-05-17T08:21:41.406Z,3.83
2023-05-17T08:24:09.130Z,4.33
2023-05-17T08:26:36.599Z,4.87
2023-05-17T08:29:07.640Z,4.50
2023-05-17T08:31:35.081Z,5.37
2023-05-17T08:34:03.118Z,4.20
2023-05-17T08:36:30.694Z,4.83
2023-05-17T08:38:58.189Z,4.40
2023-05-17T08:41:25.678Z,4.33
2023-05-17T08:43:54.272Z,4.33
2023-05-17T08:46:22.479Z,3.83
2023-05-17T08:48:55.282Z,4.10
2023-05-17T08:51:23.383Z,3.90
2023-05-17T08:53:50.995Z,3.50
2023-05-17T08:56:21.407Z,4.03
2023-05-17T08:58:56.606Z,4.23
2023-05-17T09:01:19.436Z,3.80
2023-05-17T09:03:49.402Z,4.00
2023-05-17T09:06:18.445Z,3.63
2023-05-17T09:08:45.889Z,4.30
2023-05-17T09:11:13.316Z,4.43
2023-05-17T09:13:41.022Z,5.13
2023-05-17T09:16:10.001Z,5.67
2023-05-17T09:18:38.071Z,6.10
2023-05-17T09:21:09.494Z,4.10
2023-05-17T09:23:38.479Z,4.90
2023-05-17T09:26:07.851Z,3.90
2023-05-17T09:28:36.844Z,4.40
2023-05-17T09:31:05.854Z,3.60
2023-05-17T09:33:33.300Z,4.50
2023-05-17T09:36:01.948Z,4.30
2023-05-17T09:38:35.201Z,4.00
2023-05-17T09:41:03.948Z,4.20
2023-05-17T09:43:31.714Z,3.30
2023-05-17T09:46:04.995Z,4.20
2023-05-17T09:48:32.548Z,3.87
2023-05-17T09:51:01.329Z,3.50
2023-05-17T09:53:29.716Z,3.40
2023-05-17T09:55:58.725Z,3.63
2023-05-17T09:58:26.698Z,4.00
2023-05-17T10:00:54.968Z,3.90
2023-05-17T10:03:22.546Z,3.57
2023-05-17T10:05:52.735Z,4.03
2023-05-17T10:08:21.737Z,3.33
2023-05-17T10:10:50.611Z,3.83
2023-05-17T10:13:19.594Z,3.43
2023-05-17T10:15:47.619Z,4.43
2023-05-17T10:18:15.630Z,4.70
2023-05-17T10:20:43.818Z,4.03
2023-05-17T10:23:12.342Z,4.23
2023-05-17T10:25:39.857Z,3.63
2023-05-17T10:28:07.918Z,5.30
2023-05-17T10:30:42.308Z,4.60
2023-05-17T10:33:10.791Z,4.53
2023-05-17T10:35:39.342Z,3.97
2023-05-17T10:38:07.693Z,3.93
2023-05-17T10:40:36.671Z,4.27
2023-05-17T10:43:05.788Z,3.53
2023-05-17T10:45:34.196Z,3.73
2023-05-17T10:48:04.870Z,3.83
2023-05-17T10:50:32.424Z,3.23
2023-05-17T10:53:00.361Z,3.17
2023-05-17T10:55:29.489Z,3.10
2023-05-17T10:58:18.030Z,3.60
2023-05-17T11:00:48.178Z,3.30
2023-05-17T11:03:19.958Z,2.77
2023-05-17T11:06:05.801Z,3.13
2023-05-17T11:08:33.758Z,3.13
2023-05-17T11:11:11.311Z,2.60
2023-05-17T11:13:46.581Z,2.47
2023-05-17T11:16:20.573Z,2.83
2023-05-17T11:18:48.942Z,2.73
2023-05-17T11:21:16.924Z,2.80
2023-05-17T11:23:45.603Z,2.97
2023-05-17T11:26:16.242Z,2.70
2023-05-17T11:28:43.697Z,2.63
2023-05-17T11:31:11.239Z,2.80
2023-05-17T11:33:40.204Z,2.53
2023-05-17T11:36:09.279Z,3.20
2023-05-17T11:38:37.604Z,2.83
2023-05-17T11:41:26.460Z,3.57
2023-05-17T11:43:48.775Z,2.37
2023-05-17T11:46:20.245Z,2.43
2023-05-17T11:48:48.563Z,2.23
2023-05-17T11:51:16.520Z,2.30
2023-05-17T11:53:44.636Z,3.27
2023-05-17T11:56:12.244Z,3.73
2023-05-17T11:58:40.194Z,3.27
2023-05-17T12:01:08.938Z,2.40
2023-05-17T12:03:36.556Z,3.03
2023-05-17T12:06:16.741Z,3.37
2023-05-17T12:08:45.239Z,2.50
2023-05-17T12:11:14.602Z,2.77
2023-05-17T12:13:42.597Z,3.03
2023-05-17T12:16:17.570Z,3.00
2023-05-17T12:18:45.054Z,2.20
2023-05-17T12:21:14.504Z,2.80
2023-05-17T12:23:48.341Z,2.50
2023-05-17T12:26:19.095Z,2.83
2023-05-17T12:28:47.436Z,2.47
2023-05-17T12:31:19.010Z,3.13
2023-05-17T12:33:47.959Z,2.60
2023-05-17T12:36:15.728Z,2.70
2023-05-17T12:38:43.658Z,2.40
2023-05-17T12:41:15.331Z,2.67
2023-05-17T12:43:44.330Z,3.40
2023-05-17T12:46:20.048Z,3.50
2023-05-17T12:48:48.199Z,2.80
2023-05-17T12:51:17.581Z,2.50
2023-05-17T12:53:51.649Z,2.97
2023-05-17T12:56:22.082Z,3.20
2023-05-17T12:59:09.099Z,3.00
2023-05-17T13:01:40.296Z,2.60
2023-05-17T13:04:07.798Z,2.57
2023-05-17T13:06:45.898Z,2.50
2023-05-17T13:09:29.846Z,3.37
2023-05-17T13:11:58.388Z,2.40
2023-05-17T13:14:42.642Z,2.27
2023-05-17T13:17:13.688Z,3.30
2023-05-17T13:19:41.346Z,2.83
2023-05-17T13:22:11.855Z,3.00
2023-05-17T13:24:39.743Z,3.87
2023-05-17T13:27:07.844Z,3.00
2023-05-17T13:29:40.119Z,2.87
2023-05-17T13:32:06.662Z,2.90
2023-05-17T13:34:34.157Z,2.70
2023-05-17T13:37:11.531Z,2.87
2023-05-17T13:39:37.279Z,2.50
2023-05-17T13:42:05.714Z,3.17
2023-05-17T13:44:33.287Z,3.00
2023-05-17T13:47:00.811Z,2.57
2023-05-17T13:49:28.478Z,2.40
2023-05-17T13:51:56.676Z,2.50
2023-05-17T13:54:24.170Z,2.77
2023-05-17T13:56:51.571Z,2.67
2023-05-17T13:59:19.027Z,2.90
2023-05-17T14:01:46.550Z,2.50
2023-05-17T14:04:14.110Z,2.10
2023-05-17T14:06:42.496Z,2.70
2023-05-17T14:09:10.760Z,3.00
2023-05-17T14:11:38.264Z,2.40
2023-05-17T14:14:05.953Z,2.70
2023-05-17T14:16:33.426Z,2.70
2023-05-17T14:19:04.317Z,2.60
2023-05-17T14:21:30.154Z,2.60
2023-05-17T14:23:57.532Z,2.10
2023-05-17T14:26:25.016Z,2.83
2023-05-17T14:28:52.461Z,2.27
2023-05-17T14:31:19.892Z,2.10
2023-05-17T14:33:47.382Z,2.50
2023-05-17T14:36:14.937Z,2.50
2023-05-17T14:38:42.361Z,2.40
2023-05-17T14:41:09.810Z,2.40
2023-05-17T14:43:37.260Z,2.57
2023-05-17T14:46:08.385Z,2.37
2023-05-17T14:48:36.766Z,2.93
2023-05-17T14:51:04.243Z,2.80
2023-05-17T14:53:35.703Z,2.40
2023-05-17T14:56:03.158Z,2.57
2023-05-17T14:58:30.657Z,2.83
2023-05-17T15:01:05.642Z,2.70
2023-05-17T15:03:28.379Z,2.33
2023-05-17T15:05:56.670Z,2.47
2023-05-17T15:08:24.176Z,2.20
2023-05-17T15:10:51.887Z,2.73
2023-05-17T15:13:19.333Z,2.60
2023-05-17T15:15:52.809Z,2.80
2023-05-17T15:18:20.805Z,3.10
2023-05-17T15:20:48.317Z,2.77
2023-05-17T15:23:16.114Z,2.50
2023-05-17T15:25:43.598Z,1.97
2023-05-17T15:28:11.043Z,2.60
2023-05-17T15:30:38.482Z,2.57
2023-05-17T15:33:06.911Z,2.60
2023-05-17T15:35:34.442Z,2.60
2023-05-17T15:38:05.295Z,2.60
2023-05-17T15:40:33.145Z,2.60
2023-05-17T15:43:00.581Z,2.67
2023-05-17T15:45:28.269Z,2.43
2023-05-17T15:47:57.437Z,2.20
2023-05-17T15:50:25.004Z,2.50
2023-05-17T15:52:52.469Z,2.10
2023-05-17T15:55:21.773Z,2.50
2023-05-17T15:57:49.136Z,2.33
2023-05-17T16:00:17.360Z,2.50
2023-05-17T16:02:44.842Z,2.40
2023-05-17T16:05:12.271Z,2.50
2023-05-17T16:07:39.720Z,2.37
2023-05-17T16:10:07.639Z,2.30
2023-05-17T16:12:35.645Z,2.20
2023-05-17T16:15:03.220Z,2.53
2023-05-17T16:17:30.729Z,2.30
2023-05-17T16:19:58.296Z,2.33
2023-05-17T16:22:25.883Z,2.40
2023-05-17T16:24:56.920Z,2.27
2023-05-17T16:27:24.351Z,2.50
2023-05-17T16:29:51.802Z,2.70
2023-05-17T16:32:19.306Z,2.30
2023-05-17T16:34:47.148Z,2.33
2023-05-17T16:37:14.594Z,2.67
2023-05-17T16:39:42.510Z,2.73
2023-05-17T16:42:09.913Z,2.23
2023-05-17T16:44:37.341Z,2.20
2023-05-17T16:47:04.933Z,2.40
2023-05-17T16:49:32.400Z,2.00
2023-05-17T16:52:00.414Z,1.90
2023-05-17T16:54:28.335Z,2.30
2023-05-17T16:56:56.181Z,2.13
2023-05-17T16:59:23.631Z,2.67
2023-05-17T17:01:51.684Z,2.60
2023-05-17T17:04:19.158Z,2.30
2023-05-17T17:06:46.619Z,2.60
2023-05-17T17:09:14.882Z,2.33
2023-05-17T17:11:42.289Z,2.97
2023-05-17T17:14:10.772Z,2.13
2023-05-17T17:16:38.463Z,2.40
2023-05-17T17:19:06.399Z,2.50
2023-05-17T17:21:35.542Z,2.30
2023-05-17T17:24:03.688Z,2.60
2023-05-17T17:26:31.079Z,2.47
2023-05-17T17:29:00.156Z,2.20
2023-05-17T17:31:27.816Z,2.10
2023-05-17T17:33:55.253Z,2.30
2023-05-17T17:36:24.192Z,2.13
2023-05-17T17:38:51.979Z,2.23
2023-05-17T17:41:19.450Z,2.50
2023-05-17T17:43:48.512Z,2.30
2023-05-17T17:46:16.240Z,2.40
2023-05-17T17:48:43.692Z,2.70
2023-05-17T17:51:11.742Z,2.80
2023-05-17T17:53:40.849Z,2.73
2023-05-17T17:56:08.553Z,2.47
2023-05-17T17:58:36.354Z,2.80
2023-05-17T18:01:09.833Z,2.60
2023-05-17T18:03:37.276Z,2.77
2023-05-17T18:06:04.910Z,2.33
2023-05-17T18:08:32.702Z,2.07
2023-05-17T18:11:00.211Z,2.20
2023-05-17T18:13:27.668Z,2.57
2023-05-17T18:15:55.157Z,2.87
2023-05-17T18:18:22.595Z,2.67
2023-05-17T18:20:50.196Z,2.10
2023-05-17T18:23:17.628Z,2.37
2023-05-17T18:25:47.415Z,2.20
2023-05-17T18:28:14.912Z,2.60
2023-05-17T18:30:42.609Z,2.73
2023-05-17T18:33:10.097Z,2.60
2023-05-17T18:35:38.622Z,2.50
2023-05-17T18:38:06.089Z,2.23
2023-05-17T18:40:33.513Z,2.40
2023-05-17T18:43:01.236Z,2.40
2023-05-17T18:45:28.631Z,3.33
2023-05-17T18:47:56.185Z,2.60
2023-05-17T18:50:23.573Z,1.63
2023-05-17T18:52:51.057Z,2.30
2023-05-17T18:55:18.720Z,2.27
2023-05-17T18:57:46.599Z,2.20
2023-05-17T19:00:14.451Z,2.00
2023-05-17T19:02:41.842Z,2.53
2023-05-17T19:05:09.388Z,2.53
2023-05-17T19:07:37.313Z,2.20
2023-05-17T19:10:04.737Z,1.93
2023-05-17T19:12:32.226Z,2.50
2023-05-17T19:14:59.713Z,2.50
2023-05-17T19:17:27.180Z,2.40
2023-05-17T19:19:54.577Z,2.07
2023-05-17T19:22:22.009Z,2.60
2023-05-17T19:24:50.704Z,2.43
2023-05-17T19:27:19.671Z,2.30
2023-05-17T19:29:47.468Z,2.43
2023-05-17T19:32:14.882Z,2.30
2023-05-17T19:34:42.295Z,2.30
2023-05-17T19:37:09.744Z,2.13
2023-05-17T19:39:37.226Z,2.17
2023-05-17T19:42:04.807Z,2.20
2023-05-17T19:44:32.307Z,2.63
2023-05-17T19:46:59.652Z,3.13
2023-05-17T19:49:27.026Z,3.40
2023-05-17T19:51:54.706Z,2.90
2023-05-17T19:54:22.146Z,2.70
2023-05-17T19:56:49.491Z,2.60
2023-05-17T19:59:16.917Z,2.33
2023-05-17T20:01:44.361Z,2.57
2023-05-17T20:04:12.060Z,1.87
2023-05-17T20:06:39.514Z,2.50
2023-05-17T20:09:07.489Z,2.77
2023-05-17T20:11:34.993Z,2.40
2023-05-17T20:14:02.417Z,2.67
2023-05-17T20:16:30.718Z,2.40
2023-05-17T20:18:58.320Z,3.07
2023-05-17T20:21:26.013Z,2.40
2023-05-17T20:23:55.485Z,3.10
2023-05-17T20:26:25.445Z,3.20
2023-05-17T20:28:53.090Z,3.20
2023-05-17T20:31:20.555Z,2.90
2023-05-17T20:33:47.911Z,3.10
2023-05-17T20:36:15.253Z,2.70
2023-05-17T20:38:43.100Z,3.47
2023-05-17T20:41:10.910Z,3.27
2023-05-17T20:43:38.352Z,3.00
2023-05-17T20:46:09.695Z,3.00
2023-05-17T20:48:39.044Z,3.30
2023-05-17T20:51:06.918Z,3.07
2023-05-17T20:53:34.326Z,3.07
2023-05-17T20:56:01.696Z,3.30
2023-05-17T20:58:29.558Z,3.30
2023-05-17T21:00:57.389Z,3.30
2023-05-17T21:03:26.873Z,4.00
2023-05-17T21:05:54.810Z,3.43
2023-05-17T21:08:22.631Z,2.77
2023-05-17T21:10:50.306Z,3.13
2023-05-17T21:13:17.778Z,2.90
2023-05-17T21:15:45.296Z,3.30
2023-05-17T21:18:12.737Z,2.60
2023-05-17T21:20:40.158Z,3.13
2023-05-17T21:23:07.576Z,3.40
2023-05-17T21:25:35.590Z,3.47
2023-05-17T21:28:04.325Z,3.30
2023-05-17T21:30:31.967Z,3.10
2023-05-17T21:32:59.637Z,2.93
2023-05-17T21:35:27.163Z,3.00
2023-05-17T21:37:54.587Z,4.80
2023-05-17T21:40:22.072Z,3.10
2023-05-17T21:42:49.613Z,3.10
2023-05-17T21:45:17.010Z,3.27
2023-05-17T21:47:44.485Z,3.23
2023-05-17T21:50:12.340Z,3.20
2023-05-17T21:52:40.166Z,2.87
2023-05-17T21:55:08.038Z,2.90
2023-05-17T21:57:36.120Z,3.93
2023-05-17T22:00:04.906Z,3.20
2023-05-17T22:02:34.252Z,2.80
2023-05-17T22:05:01.711Z,3.20
2023-05-17T22:07:29.106Z,3.80
2023-05-17T22:09:58.035Z,3.90
2023-05-17T22:12:26.120Z,3.23
2023-05-17T22:14:55.946Z,2.93
2023-05-17T22:17:29.640Z,3.50
2023-05-17T22:19:56.112Z,3.37
2023-05-17T22:22:23.526Z,3.00
2023-05-17T22:24:51.720Z,3.87
2023-05-17T22:27:19.081Z,3.07
2023-05-17T22:29:46.486Z,3.20
2023-05-17T22:32:13.852Z,3.50
2023-05-17T22:34:42.206Z,3.03
2023-05-17T22:37:12.894Z,3.43
2023-05-17T22:39:40.952Z,3.43
2023-05-17T22:42:08.859Z,3.37
2023-05-17T22:44:37.816Z,3.30
2023-05-17T22:47:05.380Z,4.60
2023-05-17T22:49:36.129Z,3.47
2023-05-17T22:52:07.967Z,3.50
2023-05-17T22:54:36.944Z,4.17
2023-05-17T22:57:04.713Z,4.30
2023-05-17T22:59:32.860Z,3.17
2023-05-17T23:02:00.584Z,4.20
2023-05-17T23:04:30.506Z,3.60
2023-05-17T23:07:04.195Z,4.37
2023-05-17T23:09:33.256Z,3.73
2023-05-17T23:12:02.300Z,4.13
2023-05-17T23:14:30.075Z,3.83
2023-05-17T23:16:59.145Z,3.90
2023-05-17T23:19:26.689Z,4.47
2023-05-17T23:21:54.287Z,3.73
2023-05-17T23:24:23.103Z,3.50
2023-05-17T23:26:50.539Z,3.80
2023-05-17T23:29:18.717Z,4.53
2023-05-17T23:31:47.826Z,4.00
2023-05-17T23:34:15.497Z,3.60
2023-05-17T23:36:42.917Z,3.27
2023-05-17T23:39:10.533Z,4.00
2023-05-17T23:41:38.253Z,4.37
2023-05-17T23:44:05.671Z,3.70
2023-05-17T23:46:33.163Z,3.87
2023-05-17T23:49:02.003Z,3.90
2023-05-17T23:51:29.467Z,4.40
2023-05-17T23:53:56.823Z,3.67
2023-05-17T23:56:24.568Z,3.60
2023-05-17T23:58:51.904Z,4.10
